createdAt,value
2019-03-17T00:00:41.647Z,996.43
2019-03-17T00:01:41.738Z,996.37
2019-03-17T00:02:41.653Z,996.38
2019-03-17T00:03:41.658Z,996.39
2019-03-17T00:04:41.661Z,996.36
2019-03-17T00:05:41.786Z,996.36
2019-03-17T00:06:41.663Z,996.36
2019-03-17T00:07:41.671Z,996.33
2019-03-17T00:08:41.712Z,996.27
2019-03-17T00:09:41.671Z,996.26
2019-03-17T00:10:41.673Z,996.24
2019-03-17T00:11:41.683Z,996.28
2019-03-17T00:12:41.679Z,996.24
2019-03-17T00:13:41.697Z,996.27
2019-03-17T00:14:41.684Z,996.21
2019-03-17T00:15:41.689Z,996.20
2019-03-17T00:16:41.693Z,996.20
2019-03-17T00:17:42.133Z,996.21
2019-03-17T00:18:41.699Z,996.23
2019-03-17T00:19:41.791Z,996.22
2019-03-17T00:20:41.699Z,996.23
2019-03-17T00:21:41.712Z,996.18
2019-03-17T00:22:41.713Z,996.22
2019-03-17T00:23:41.716Z,996.17
2019-03-17T00:24:41.714Z,996.15
2019-03-17T00:25:41.846Z,996.12
2019-03-17T00:26:41.723Z,996.13
2019-03-17T00:27:41.727Z,996.14
2019-03-17T00:28:44.274Z,996.14
2019-03-17T00:29:41.734Z,996.10
2019-03-17T00:30:41.727Z,996.12
2019-03-17T00:31:41.747Z,996.12
2019-03-17T00:32:41.741Z,996.13
2019-03-17T00:33:41.731Z,996.08
2019-03-17T00:34:44.408Z,996.07
2019-03-17T00:35:41.757Z,996.00
2019-03-17T00:36:41.749Z,996.00
2019-03-17T00:37:41.853Z,996.05
2019-03-17T00:38:41.753Z,995.95
2019-03-17T00:39:41.827Z,995.94
2019-03-17T00:40:41.759Z,995.95
2019-03-17T00:41:41.763Z,995.93
2019-03-17T00:42:41.768Z,995.96
2019-03-17T00:43:41.779Z,995.93
2019-03-17T00:44:41.771Z,995.85
2019-03-17T00:45:41.789Z,995.89
2019-03-17T00:46:41.777Z,995.90
2019-03-17T00:47:41.855Z,995.90
2019-03-17T00:48:41.783Z,995.84
2019-03-17T00:49:41.813Z,995.85
2019-03-17T00:50:41.793Z,995.87
2019-03-17T00:51:41.807Z,995.85
2019-03-17T00:52:41.796Z,995.82
2019-03-17T00:53:41.809Z,995.82
2019-03-17T00:54:41.795Z,995.79
2019-03-17T00:55:41.799Z,995.82
2019-03-17T00:56:41.805Z,995.78
2019-03-17T00:57:41.819Z,995.75
2019-03-17T00:58:41.810Z,995.73
2019-03-17T00:59:41.809Z,995.68
2019-03-17T01:00:41.813Z,995.66
2019-03-17T01:01:41.818Z,995.62
2019-03-17T01:02:41.820Z,995.60
2019-03-17T01:03:41.880Z,995.66
2019-03-17T01:04:41.828Z,995.55
2019-03-17T01:05:41.834Z,995.60
2019-03-17T01:06:41.828Z,995.55
2019-03-17T01:07:41.836Z,995.52
2019-03-17T01:08:41.840Z,995.46
2019-03-17T01:09:41.843Z,995.45
2019-03-17T01:10:41.840Z,995.42
2019-03-17T01:11:41.847Z,995.37
2019-03-17T01:12:44.621Z,995.35
2019-03-17T01:13:41.856Z,995.30
2019-03-17T01:14:41.856Z,995.30
2019-03-17T01:15:41.866Z,995.25
2019-03-17T01:16:41.860Z,995.20
2019-03-17T01:17:41.865Z,995.28
2019-03-17T01:18:41.867Z,995.27
2019-03-17T01:19:41.871Z,995.28
2019-03-17T01:20:41.873Z,995.23
2019-03-17T01:21:41.878Z,995.24
2019-03-17T01:22:41.880Z,995.23
2019-03-17T01:23:41.884Z,995.26
2019-03-17T01:24:41.884Z,995.17
2019-03-17T01:25:41.884Z,995.21
2019-03-17T01:26:41.886Z,995.25
2019-03-17T01:27:41.893Z,995.23
2019-03-17T01:28:41.901Z,995.19
2019-03-17T01:29:41.904Z,995.20
2019-03-17T01:30:41.900Z,995.13
2019-03-17T01:31:41.903Z,995.16
2019-03-17T01:32:41.907Z,994.99
2019-03-17T01:33:41.910Z,995.03
2019-03-17T01:34:41.910Z,995.01
2019-03-17T01:35:41.913Z,995.04
2019-03-17T01:36:41.918Z,995.04
2019-03-17T01:37:41.919Z,995.00
2019-03-17T01:38:41.925Z,994.93
2019-03-17T01:39:41.935Z,994.98
2019-03-17T01:40:41.930Z,994.97
2019-03-17T01:41:41.930Z,994.91
2019-03-17T01:42:41.931Z,994.82
2019-03-17T01:43:41.936Z,994.82
2019-03-17T01:44:41.944Z,994.88
2019-03-17T01:45:41.940Z,994.85
2019-03-17T01:46:41.946Z,994.83
2019-03-17T01:47:41.943Z,994.77
2019-03-17T01:48:41.953Z,994.75
2019-03-17T01:49:41.953Z,994.69
2019-03-17T01:50:41.958Z,994.69
2019-03-17T01:51:41.962Z,994.72
2019-03-17T01:52:41.965Z,994.71
2019-03-17T01:53:41.966Z,994.76
2019-03-17T01:54:41.967Z,994.69
2019-03-17T01:55:41.964Z,994.64
2019-03-17T01:56:41.974Z,994.68
2019-03-17T01:57:41.979Z,994.65
2019-03-17T01:58:41.977Z,994.66
2019-03-17T01:59:41.977Z,994.64
2019-03-17T02:00:41.987Z,994.66
2019-03-17T02:01:41.988Z,994.62
2019-03-17T02:02:42.006Z,994.64
2019-03-17T02:03:41.991Z,994.59
2019-03-17T02:04:41.993Z,994.59
2019-03-17T02:05:41.997Z,994.58
2019-03-17T02:06:42.008Z,994.60
2019-03-17T02:07:42.005Z,994.56
2019-03-17T02:08:42.008Z,994.60
2019-03-17T02:09:42.012Z,994.58
2019-03-17T02:10:42.011Z,994.58
2019-03-17T02:11:42.018Z,994.61
2019-03-17T02:12:42.023Z,994.60
2019-03-17T02:13:42.024Z,994.57
2019-03-17T02:14:42.024Z,994.60
2019-03-17T02:15:42.023Z,994.64
2019-03-17T02:16:42.027Z,994.65
2019-03-17T02:17:42.032Z,994.60
2019-03-17T02:18:42.037Z,994.63
2019-03-17T02:19:42.039Z,994.62
2019-03-17T02:20:42.039Z,994.60
2019-03-17T02:21:42.043Z,994.60
2019-03-17T02:22:42.047Z,994.56
2019-03-17T02:23:42.077Z,994.54
2019-03-17T02:24:42.066Z,994.56
2019-03-17T02:25:42.051Z,994.58
2019-03-17T02:26:42.057Z,994.59
2019-03-17T02:27:42.061Z,994.56
2019-03-17T02:28:42.064Z,994.52
2019-03-17T02:29:42.067Z,994.46
2019-03-17T02:30:42.073Z,994.47
2019-03-17T02:31:42.072Z,994.49
2019-03-17T02:32:42.084Z,994.47
2019-03-17T02:33:42.081Z,994.46
2019-03-17T02:34:42.091Z,994.48
2019-03-17T02:35:42.086Z,994.49
2019-03-17T02:36:42.090Z,994.44
2019-03-17T02:37:42.090Z,994.45
2019-03-17T02:38:42.101Z,994.50
2019-03-17T02:39:42.100Z,994.44
2019-03-17T02:40:42.100Z,994.41
2019-03-17T02:41:42.103Z,994.32
2019-03-17T02:42:42.104Z,994.32
2019-03-17T02:43:42.118Z,994.30
2019-03-17T02:44:42.121Z,994.30
2019-03-17T02:45:42.115Z,994.31
2019-03-17T02:46:42.145Z,994.32
2019-03-17T02:47:42.114Z,994.24
2019-03-17T02:48:42.127Z,994.20
2019-03-17T02:49:42.122Z,994.18
2019-03-17T02:50:42.128Z,994.19
2019-03-17T02:51:42.127Z,994.11
2019-03-17T02:52:42.136Z,994.11
2019-03-17T02:53:42.139Z,994.09
2019-03-17T02:54:42.131Z,994.10
2019-03-17T02:55:42.141Z,994.13
2019-03-17T02:56:42.140Z,994.16
2019-03-17T02:57:42.148Z,994.13
2019-03-17T02:58:42.143Z,994.12
2019-03-17T02:59:42.159Z,994.15
2019-03-17T03:00:42.164Z,994.13
2019-03-17T03:01:42.152Z,994.09
2019-03-17T03:02:42.162Z,994.09
2019-03-17T03:03:42.179Z,994.09
2019-03-17T03:04:42.170Z,994.04
2019-03-17T03:05:54.176Z,994.03
2019-03-17T03:06:42.176Z,994.02
2019-03-17T03:07:42.175Z,994.02
2019-03-17T03:08:42.175Z,994.08
2019-03-17T03:09:42.187Z,993.99
2019-03-17T03:10:42.182Z,994.01
2019-03-17T03:11:42.318Z,994.04
2019-03-17T03:12:42.195Z,993.99
2019-03-17T03:13:42.192Z,994.01
2019-03-17T03:14:42.197Z,994.03
2019-03-17T03:15:42.205Z,994.03
2019-03-17T03:16:42.201Z,994.05
2019-03-17T03:17:42.202Z,994.01
2019-03-17T03:18:42.200Z,993.98
2019-03-17T03:19:42.212Z,994.02
2019-03-17T03:20:42.209Z,993.93
2019-03-17T03:21:42.215Z,993.95
2019-03-17T03:22:42.214Z,993.90
2019-03-17T03:23:42.217Z,993.82
2019-03-17T03:24:42.222Z,993.83
2019-03-17T03:25:42.223Z,993.83
2019-03-17T03:26:42.229Z,993.87
2019-03-17T03:27:42.226Z,993.83
2019-03-17T03:28:42.232Z,993.82
2019-03-17T03:29:42.235Z,993.77
2019-03-17T03:30:42.234Z,993.78
2019-03-17T03:31:42.242Z,993.73
2019-03-17T03:32:42.250Z,993.66
2019-03-17T03:33:42.244Z,993.59
2019-03-17T03:34:42.257Z,993.56
2019-03-17T03:35:42.250Z,993.46
2019-03-17T03:36:42.254Z,993.52
2019-03-17T03:37:42.264Z,993.59
2019-03-17T03:38:42.263Z,993.62
2019-03-17T03:39:42.287Z,993.68
2019-03-17T03:40:42.262Z,993.69
2019-03-17T03:41:42.275Z,993.67
2019-03-17T03:42:42.266Z,993.70
2019-03-17T03:43:42.273Z,993.66
2019-03-17T03:44:42.271Z,993.70
2019-03-17T03:45:42.279Z,993.66
2019-03-17T03:46:42.280Z,993.65
2019-03-17T03:47:42.315Z,993.66
2019-03-17T03:48:42.289Z,993.71
2019-03-17T03:49:42.292Z,993.61
2019-03-17T03:50:42.292Z,993.60
2019-03-17T03:51:42.298Z,993.57
2019-03-17T03:52:42.301Z,993.59
2019-03-17T03:53:42.300Z,993.60
2019-03-17T03:54:42.309Z,993.60
2019-03-17T03:55:42.577Z,993.57
2019-03-17T03:56:42.311Z,993.58
2019-03-17T03:57:42.317Z,993.58
2019-03-17T03:58:42.318Z,993.59
2019-03-17T03:59:42.317Z,993.57
2019-03-17T04:00:42.321Z,993.60
2019-03-17T04:01:42.329Z,993.60
2019-03-17T04:02:42.331Z,993.58
2019-03-17T04:03:42.329Z,993.60
2019-03-17T04:04:42.333Z,993.57
2019-03-17T04:05:42.335Z,993.58
2019-03-17T04:06:42.349Z,993.57
2019-03-17T04:07:42.340Z,993.58
2019-03-17T04:08:42.363Z,993.58
2019-03-17T04:09:42.347Z,993.54
2019-03-17T04:10:42.344Z,993.51
2019-03-17T04:11:42.351Z,993.54
2019-03-17T04:12:42.355Z,993.47
2019-03-17T04:13:42.357Z,993.46
2019-03-17T04:14:42.359Z,993.48
2019-03-17T04:15:42.363Z,993.45
2019-03-17T04:16:42.362Z,993.44
2019-03-17T04:17:42.367Z,993.44
2019-03-17T04:18:42.371Z,993.42
2019-03-17T04:19:42.376Z,993.45
2019-03-17T04:20:42.381Z,993.48
2019-03-17T04:21:42.380Z,993.48
2019-03-17T04:22:42.380Z,993.46
2019-03-17T04:23:42.381Z,993.49
2019-03-17T04:24:42.393Z,993.50
2019-03-17T04:25:42.393Z,993.50
2019-03-17T04:26:42.390Z,993.44
2019-03-17T04:27:42.399Z,993.49
2019-03-17T04:28:42.395Z,993.52
2019-03-17T04:29:42.401Z,993.56
2019-03-17T04:30:42.404Z,993.50
2019-03-17T04:31:42.403Z,993.52
2019-03-17T04:32:42.484Z,993.50
2019-03-17T04:33:42.412Z,993.49
2019-03-17T04:34:42.450Z,993.50
2019-03-17T04:35:42.420Z,993.49
2019-03-17T04:36:42.420Z,993.48
2019-03-17T04:37:42.422Z,993.47
2019-03-17T04:38:43.856Z,993.43
2019-03-17T04:39:42.440Z,993.45
2019-03-17T04:40:42.431Z,993.42
2019-03-17T04:41:42.435Z,993.36
2019-03-17T04:42:42.435Z,993.43
2019-03-17T04:43:42.445Z,993.47
2019-03-17T04:44:42.451Z,993.51
2019-03-17T04:45:42.447Z,993.52
2019-03-17T04:46:42.460Z,993.55
2019-03-17T04:47:42.444Z,993.61
2019-03-17T04:48:42.472Z,993.57
2019-03-17T04:49:42.458Z,993.53
2019-03-17T04:50:42.455Z,993.57
2019-03-17T04:51:42.463Z,993.52
2019-03-17T04:52:42.463Z,993.50
2019-03-17T04:53:42.463Z,993.46
2019-03-17T04:54:42.465Z,993.54
2019-03-17T04:55:42.469Z,993.50
2019-03-17T04:56:42.479Z,993.43
2019-03-17T04:57:42.475Z,993.42
2019-03-17T04:58:42.487Z,993.42
2019-03-17T04:59:42.483Z,993.39
2019-03-17T05:00:42.481Z,993.44
2019-03-17T05:01:42.486Z,993.40
2019-03-17T05:02:42.493Z,993.47
2019-03-17T05:03:42.491Z,993.44
2019-03-17T05:04:42.501Z,993.46
2019-03-17T05:05:42.499Z,993.52
2019-03-17T05:06:52.085Z,993.50
2019-03-17T05:07:42.498Z,993.38
2019-03-17T05:08:42.509Z,993.34
2019-03-17T05:09:42.508Z,993.30
2019-03-17T05:10:42.512Z,993.34
2019-03-17T05:11:42.510Z,993.39
2019-03-17T05:12:42.519Z,993.35
2019-03-17T05:13:42.521Z,993.37
2019-03-17T05:14:42.515Z,993.33
2019-03-17T05:15:42.525Z,993.32
2019-03-17T05:16:42.529Z,993.33
2019-03-17T05:17:42.529Z,993.37
2019-03-17T05:18:42.533Z,993.34
2019-03-17T05:19:42.534Z,993.29
2019-03-17T05:20:42.541Z,993.34
2019-03-17T05:21:42.546Z,993.26
2019-03-17T05:22:42.545Z,993.33
2019-03-17T05:23:42.546Z,993.39
2019-03-17T05:24:42.555Z,993.30
2019-03-17T05:25:42.555Z,993.34
2019-03-17T05:26:42.562Z,993.40
2019-03-17T05:27:42.557Z,993.34
2019-03-17T05:28:42.563Z,993.33
2019-03-17T05:29:42.568Z,993.36
2019-03-17T05:30:42.564Z,993.35
2019-03-17T05:31:42.570Z,993.42
2019-03-17T05:32:42.605Z,993.39
2019-03-17T05:33:42.578Z,993.44
2019-03-17T05:34:42.572Z,993.43
2019-03-17T05:35:42.582Z,993.42
2019-03-17T05:36:42.587Z,993.45
2019-03-17T05:37:42.589Z,993.42
2019-03-17T05:38:42.600Z,993.45
2019-03-17T05:39:42.594Z,993.53
2019-03-17T05:40:42.591Z,993.51
2019-03-17T05:41:42.595Z,993.53
2019-03-17T05:42:42.597Z,993.56
2019-03-17T05:43:42.601Z,993.50
2019-03-17T05:44:42.605Z,993.46
2019-03-17T05:45:42.615Z,993.50
2019-03-17T05:46:42.613Z,993.55
2019-03-17T05:47:42.612Z,993.45
2019-03-17T05:48:42.617Z,993.48
2019-03-17T05:49:42.631Z,993.53
2019-03-17T05:50:42.619Z,993.47
2019-03-17T05:51:42.625Z,993.59
2019-03-17T05:52:42.627Z,993.64
2019-03-17T05:53:42.634Z,993.55
2019-03-17T05:54:42.634Z,993.53
2019-03-17T05:55:42.640Z,993.56
2019-03-17T05:56:42.640Z,993.57
2019-03-17T05:57:42.644Z,993.60
2019-03-17T05:58:42.644Z,993.58
2019-03-17T05:59:42.647Z,993.58
2019-03-17T06:00:42.647Z,993.58
2019-03-17T06:01:42.653Z,993.62
2019-03-17T06:02:42.655Z,993.59
2019-03-17T06:03:42.659Z,993.59
2019-03-17T06:04:42.658Z,993.69
2019-03-17T06:05:42.666Z,993.67
2019-03-17T06:06:42.667Z,993.64
2019-03-17T06:07:42.665Z,993.61
2019-03-17T06:08:42.674Z,993.64
2019-03-17T06:09:42.685Z,993.69
2019-03-17T06:10:42.674Z,993.76
2019-03-17T06:11:42.677Z,993.79
2019-03-17T06:12:42.682Z,993.81
2019-03-17T06:13:42.683Z,993.79
2019-03-17T06:14:42.698Z,993.81
2019-03-17T06:15:42.692Z,993.89
2019-03-17T06:16:42.732Z,993.86
2019-03-17T06:17:42.695Z,993.90
2019-03-17T06:18:42.704Z,993.84
2019-03-17T06:19:42.706Z,993.87
2019-03-17T06:20:42.709Z,993.85
2019-03-17T06:21:42.703Z,993.87
2019-03-17T06:22:42.707Z,993.88
2019-03-17T06:23:42.713Z,993.86
2019-03-17T06:24:42.720Z,993.80
2019-03-17T06:25:42.718Z,993.85
2019-03-17T06:26:42.726Z,993.84
2019-03-17T06:27:42.723Z,993.91
2019-03-17T06:28:42.733Z,993.91
2019-03-17T06:29:42.737Z,993.92
2019-03-17T06:30:42.731Z,993.99
2019-03-17T06:31:42.738Z,993.90
2019-03-17T06:32:42.744Z,993.94
2019-03-17T06:33:42.739Z,993.94
2019-03-17T06:34:42.746Z,993.92
2019-03-17T06:35:42.745Z,993.97
2019-03-17T06:36:42.752Z,993.98
2019-03-17T06:37:42.754Z,994.00
2019-03-17T06:38:42.756Z,994.00
2019-03-17T06:39:42.758Z,994.08
2019-03-17T06:40:42.759Z,994.00
2019-03-17T06:41:42.767Z,994.01
2019-03-17T06:42:42.776Z,994.03
2019-03-17T06:43:42.769Z,994.01
2019-03-17T06:44:42.770Z,994.02
2019-03-17T06:45:42.781Z,993.96
2019-03-17T06:46:42.775Z,994.05
2019-03-17T06:47:42.778Z,994.09
2019-03-17T06:48:42.785Z,994.06
2019-03-17T06:49:42.787Z,994.05
2019-03-17T06:50:42.787Z,994.08
2019-03-17T06:51:42.794Z,994.12
2019-03-17T06:52:42.795Z,994.12
2019-03-17T06:53:55.430Z,994.10
2019-03-17T06:54:42.801Z,994.15
2019-03-17T06:55:42.805Z,994.13
2019-03-17T06:56:42.803Z,994.13
2019-03-17T06:57:42.806Z,994.16
2019-03-17T06:58:42.818Z,994.14
2019-03-17T06:59:42.813Z,994.22
2019-03-17T07:00:42.819Z,994.23
2019-03-17T07:01:42.821Z,994.19
2019-03-17T07:02:42.821Z,994.19
2019-03-17T07:03:42.826Z,994.18
2019-03-17T07:04:42.829Z,994.25
2019-03-17T07:05:42.831Z,994.27
2019-03-17T07:06:42.837Z,994.26
2019-03-17T07:07:44.296Z,994.31
2019-03-17T07:08:42.837Z,994.27
2019-03-17T07:09:42.841Z,994.32
2019-03-17T07:10:42.847Z,994.37
2019-03-17T07:11:42.849Z,994.33
2019-03-17T07:12:42.851Z,994.31
2019-03-17T07:13:42.849Z,994.34
2019-03-17T07:14:42.855Z,994.29
2019-03-17T07:15:42.863Z,994.30
2019-03-17T07:16:42.863Z,994.27
2019-03-17T07:17:42.862Z,994.35
2019-03-17T07:18:42.865Z,994.35
2019-03-17T07:19:42.869Z,994.33
2019-03-17T07:20:42.869Z,994.38
2019-03-17T07:21:42.877Z,994.34
2019-03-17T07:22:42.879Z,994.38
2019-03-17T07:23:42.880Z,994.33
2019-03-17T07:24:42.885Z,994.39
2019-03-17T07:25:42.887Z,994.40
2019-03-17T07:26:42.885Z,994.38
2019-03-17T07:27:42.894Z,994.42
2019-03-17T07:28:42.897Z,994.45
2019-03-17T07:29:42.901Z,994.44
2019-03-17T07:30:42.897Z,994.38
2019-03-17T07:31:42.906Z,994.45
2019-03-17T07:32:42.905Z,994.56
2019-03-17T07:33:42.914Z,994.51
2019-03-17T07:34:42.909Z,994.52
2019-03-17T07:35:42.921Z,994.52
2019-03-17T07:36:42.913Z,994.55
2019-03-17T07:37:55.822Z,994.63
2019-03-17T07:38:42.920Z,994.62
2019-03-17T07:39:42.929Z,994.63
2019-03-17T07:40:42.925Z,994.64
2019-03-17T07:41:42.945Z,994.64
2019-03-17T07:42:42.933Z,994.65
2019-03-17T07:43:42.933Z,994.70
2019-03-17T07:44:42.941Z,994.68
2019-03-17T07:45:42.947Z,994.72
2019-03-17T07:46:42.946Z,994.80
2019-03-17T07:47:42.946Z,994.83
2019-03-17T07:48:42.952Z,994.90
2019-03-17T07:49:42.952Z,994.95
2019-03-17T07:50:42.971Z,995.10
2019-03-17T07:51:42.959Z,995.18
2019-03-17T07:52:42.960Z,995.27
2019-03-17T07:53:42.967Z,995.29
2019-03-17T07:54:42.967Z,995.31
2019-03-17T07:55:42.976Z,995.32
2019-03-17T07:56:42.978Z,995.33
2019-03-17T07:57:42.983Z,995.28
2019-03-17T07:58:42.977Z,995.38
2019-03-17T07:59:42.987Z,995.39
2019-03-17T08:00:42.984Z,995.44
2019-03-17T08:01:42.987Z,995.43
2019-03-17T08:02:43.045Z,995.46
2019-03-17T08:03:42.991Z,995.43
2019-03-17T08:04:46.041Z,995.51
2019-03-17T08:05:43.002Z,995.54
2019-03-17T08:06:43.008Z,995.52
2019-03-17T08:07:43.005Z,995.59
2019-03-17T08:08:43.021Z,995.58
2019-03-17T08:09:43.013Z,995.56
2019-03-17T08:10:43.015Z,995.62
2019-03-17T08:11:43.015Z,995.63
2019-03-17T08:12:43.015Z,995.65
2019-03-17T08:13:43.007Z,995.66
2019-03-17T08:14:43.025Z,995.63
2019-03-17T08:15:43.029Z,995.67
2019-03-17T08:16:43.040Z,995.68
2019-03-17T08:17:43.033Z,995.68
2019-03-17T08:18:43.033Z,995.61
2019-03-17T08:19:43.038Z,995.70
2019-03-17T08:20:43.044Z,995.66
2019-03-17T08:21:43.620Z,995.69
2019-03-17T08:22:43.045Z,995.69
2019-03-17T08:23:43.081Z,995.68
2019-03-17T08:24:43.057Z,995.72
2019-03-17T08:25:43.043Z,995.67
2019-03-17T08:26:43.056Z,995.65
2019-03-17T08:27:43.060Z,995.64
2019-03-17T08:28:43.061Z,995.68
2019-03-17T08:29:43.067Z,995.67
2019-03-17T08:30:52.602Z,995.66
2019-03-17T08:31:43.075Z,995.64
2019-03-17T08:32:43.070Z,995.59
2019-03-17T08:33:43.081Z,995.65
2019-03-17T08:34:43.086Z,995.64
2019-03-17T08:35:43.102Z,995.66
2019-03-17T08:36:43.086Z,995.65
2019-03-17T08:37:43.099Z,995.70
2019-03-17T08:38:43.089Z,995.65
2019-03-17T08:39:43.122Z,995.68
2019-03-17T08:40:43.099Z,995.75
2019-03-17T08:41:43.101Z,995.79
2019-03-17T08:42:43.105Z,995.82
2019-03-17T08:43:53.771Z,995.84
2019-03-17T08:44:43.108Z,995.83
2019-03-17T08:45:43.112Z,995.80
2019-03-17T08:46:43.113Z,995.83
2019-03-17T08:47:43.116Z,995.82
2019-03-17T08:48:43.125Z,995.85
2019-03-17T08:49:43.134Z,995.89
2019-03-17T08:50:43.151Z,995.90
2019-03-17T08:51:43.130Z,996.00
2019-03-17T08:52:43.140Z,996.01
2019-03-17T08:53:43.138Z,996.01
2019-03-17T08:54:43.143Z,996.01
2019-03-17T08:55:43.138Z,996.07
2019-03-17T08:56:43.146Z,996.11
2019-03-17T08:57:43.157Z,996.07
2019-03-17T08:58:43.144Z,996.07
2019-03-17T08:59:43.145Z,996.10
2019-03-17T09:00:43.161Z,996.09
2019-03-17T09:01:43.159Z,996.09
2019-03-17T09:02:43.159Z,996.09
2019-03-17T09:03:43.161Z,996.15
2019-03-17T09:04:43.162Z,996.12
2019-03-17T09:05:43.170Z,996.07
2019-03-17T09:06:43.172Z,996.13
2019-03-17T09:07:43.174Z,996.11
2019-03-17T09:08:43.175Z,996.18
2019-03-17T09:09:43.179Z,996.25
2019-03-17T09:10:43.185Z,996.19
2019-03-17T09:11:43.181Z,996.21
2019-03-17T09:12:43.189Z,996.21
2019-03-17T09:13:43.191Z,996.23
2019-03-17T09:14:43.194Z,996.22
2019-03-17T09:15:43.193Z,996.19
2019-03-17T09:16:43.270Z,996.21
2019-03-17T09:17:43.199Z,996.21
2019-03-17T09:18:43.201Z,996.20
2019-03-17T09:19:43.217Z,996.19
2019-03-17T09:20:43.215Z,996.22
2019-03-17T09:21:43.209Z,996.25
2019-03-17T09:22:43.226Z,996.38
2019-03-17T09:23:43.218Z,996.44
2019-03-17T09:24:43.217Z,996.37
2019-03-17T09:25:43.219Z,996.48
2019-03-17T09:26:43.232Z,996.46
2019-03-17T09:27:43.227Z,996.48
2019-03-17T09:28:43.233Z,996.35
2019-03-17T09:29:43.239Z,996.35
2019-03-17T09:30:43.239Z,996.40
2019-03-17T09:31:43.243Z,996.36
2019-03-17T09:32:43.244Z,996.34
2019-03-17T09:33:43.249Z,996.38
2019-03-17T09:34:43.249Z,996.44
2019-03-17T09:35:43.248Z,996.44
2019-03-17T09:36:43.259Z,996.47
2019-03-17T09:37:43.257Z,996.46
2019-03-17T09:38:47.610Z,996.48
2019-03-17T09:39:43.311Z,996.45
2019-03-17T09:40:43.263Z,996.43
2019-03-17T09:41:43.274Z,996.45
2019-03-17T09:42:43.274Z,996.41
2019-03-17T09:43:43.277Z,996.40
2019-03-17T09:44:43.293Z,996.39
2019-03-17T09:45:43.281Z,996.45
2019-03-17T09:46:43.287Z,996.50
2019-03-17T09:47:43.288Z,996.51
2019-03-17T09:48:43.287Z,996.51
2019-03-17T09:49:43.293Z,996.53
2019-03-17T09:50:43.293Z,996.55
2019-03-17T09:51:43.293Z,996.51
2019-03-17T09:52:43.307Z,996.59
2019-03-17T09:53:43.301Z,996.57
2019-03-17T09:54:43.305Z,996.55
2019-03-17T09:55:43.309Z,996.53
2019-03-17T09:56:43.309Z,996.58
2019-03-17T09:57:43.320Z,996.67
2019-03-17T09:58:45.557Z,996.74
2019-03-17T09:59:43.318Z,996.67
2019-03-17T10:00:43.326Z,996.79
2019-03-17T10:01:43.330Z,996.75
2019-03-17T10:02:43.331Z,996.80
2019-03-17T10:03:43.328Z,996.71
2019-03-17T10:04:43.334Z,996.72
2019-03-17T10:05:43.340Z,996.73
2019-03-17T10:06:43.344Z,996.74
2019-03-17T10:07:43.349Z,996.76
2019-03-17T10:08:43.432Z,996.74
2019-03-17T10:09:43.346Z,996.72
2019-03-17T10:10:43.350Z,996.67
2019-03-17T10:11:43.358Z,996.71
2019-03-17T10:12:43.358Z,996.71
2019-03-17T10:13:43.364Z,996.76
2019-03-17T10:14:43.366Z,996.74
2019-03-17T10:15:43.366Z,996.66
2019-03-17T10:16:43.369Z,996.63
2019-03-17T10:17:43.375Z,996.68
2019-03-17T10:18:43.390Z,996.72
2019-03-17T10:19:43.376Z,996.69
2019-03-17T10:20:43.383Z,996.71
2019-03-17T10:21:43.386Z,996.61
2019-03-17T10:22:43.385Z,996.73
2019-03-17T10:23:43.390Z,996.73
2019-03-17T10:24:43.398Z,996.73
2019-03-17T10:25:43.394Z,996.71
2019-03-17T10:26:43.403Z,996.74
2019-03-17T10:27:43.403Z,996.70
2019-03-17T10:28:43.402Z,996.75
2019-03-17T10:29:43.408Z,996.77
2019-03-17T10:30:43.413Z,996.80
2019-03-17T10:31:43.415Z,996.79
2019-03-17T10:32:43.423Z,996.80
2019-03-17T10:33:45.651Z,996.90
2019-03-17T10:34:43.426Z,996.90
2019-03-17T10:35:43.426Z,996.96
2019-03-17T10:36:43.426Z,996.83
2019-03-17T10:37:43.437Z,996.89
2019-03-17T10:38:43.428Z,996.85
2019-03-17T10:39:43.432Z,996.90
2019-03-17T10:40:43.445Z,996.82
2019-03-17T10:41:43.436Z,997.00
2019-03-17T10:42:43.450Z,996.95
2019-03-17T10:43:43.676Z,996.85
2019-03-17T10:44:43.456Z,996.86
2019-03-17T10:45:43.458Z,996.90
2019-03-17T10:46:43.457Z,996.83
2019-03-17T10:47:43.459Z,996.97
2019-03-17T10:48:43.462Z,996.91
2019-03-17T10:49:43.464Z,996.91
2019-03-17T10:50:49.603Z,996.94
2019-03-17T10:51:43.468Z,997.00
2019-03-17T10:52:43.475Z,997.04
2019-03-17T10:53:43.480Z,996.99
2019-03-17T10:54:43.478Z,996.93
2019-03-17T10:55:43.480Z,996.95
2019-03-17T10:56:43.486Z,996.92
2019-03-17T10:57:43.488Z,996.93
2019-03-17T10:58:43.494Z,996.93
2019-03-17T10:59:43.492Z,997.00
2019-03-17T11:00:43.500Z,997.01
2019-03-17T11:01:43.496Z,996.98
2019-03-17T11:02:43.500Z,997.13
2019-03-17T11:03:43.506Z,997.15
2019-03-17T11:04:43.506Z,997.07
2019-03-17T11:05:43.510Z,997.05
2019-03-17T11:06:43.528Z,997.05
2019-03-17T11:07:43.521Z,997.11
2019-03-17T11:08:43.518Z,997.07
2019-03-17T11:09:43.522Z,997.13
2019-03-17T11:10:43.528Z,997.17
2019-03-17T11:11:43.530Z,997.17
2019-03-17T11:12:43.531Z,997.18
2019-03-17T11:13:43.534Z,997.21
2019-03-17T11:14:43.543Z,997.21
2019-03-17T11:15:43.539Z,997.23
2019-03-17T11:16:43.541Z,997.36
2019-03-17T11:17:43.544Z,997.29
2019-03-17T11:18:43.555Z,997.36
2019-03-17T11:19:43.550Z,997.43
2019-03-17T11:20:43.558Z,997.46
2019-03-17T11:21:43.561Z,997.50
2019-03-17T11:22:43.559Z,997.47
2019-03-17T11:23:43.565Z,997.45
2019-03-17T11:24:43.663Z,997.48
2019-03-17T11:25:43.578Z,997.53
2019-03-17T11:26:43.570Z,997.51
2019-03-17T11:27:43.574Z,997.51
2019-03-17T11:28:43.580Z,997.51
2019-03-17T11:29:43.578Z,997.44
2019-03-17T11:30:43.587Z,997.52
2019-03-17T11:31:43.586Z,997.59
2019-03-17T11:32:43.586Z,997.50
2019-03-17T11:33:43.588Z,997.48
2019-03-17T11:34:43.594Z,997.41
2019-03-17T11:35:43.598Z,997.40
2019-03-17T11:36:43.601Z,997.45
2019-03-17T11:37:43.622Z,997.42
2019-03-17T11:38:43.609Z,997.44
2019-03-17T11:39:43.603Z,997.46
2019-03-17T11:40:43.613Z,997.43
2019-03-17T11:41:43.618Z,997.49
2019-03-17T11:42:43.618Z,997.51
2019-03-17T11:43:43.624Z,997.53
2019-03-17T11:44:43.639Z,997.48
2019-03-17T11:45:43.625Z,997.44
2019-03-17T11:46:43.633Z,997.51
2019-03-17T11:47:43.635Z,997.54
2019-03-17T11:48:43.633Z,997.51
2019-03-17T11:49:46.002Z,997.49
2019-03-17T11:50:43.638Z,997.44
2019-03-17T11:51:43.648Z,997.43
2019-03-17T11:52:43.652Z,997.42
2019-03-17T11:53:43.657Z,997.49
2019-03-17T11:54:43.642Z,997.47
2019-03-17T11:55:43.654Z,997.43
2019-03-17T11:56:43.651Z,997.42
2019-03-17T11:57:43.662Z,997.39
2019-03-17T11:58:43.658Z,997.49
2019-03-17T11:59:43.670Z,997.55
2019-03-17T12:00:44.203Z,997.54
2019-03-17T12:01:43.680Z,997.54
2019-03-17T12:02:43.663Z,997.53
2019-03-17T12:03:43.685Z,997.64
2019-03-17T12:04:43.690Z,997.61
2019-03-17T12:05:43.684Z,997.62
2019-03-17T12:06:44.201Z,997.61
2019-03-17T12:07:43.696Z,997.61
2019-03-17T12:08:43.690Z,997.61
2019-03-17T12:09:50.138Z,997.59
2019-03-17T12:10:43.778Z,997.62
2019-03-17T12:11:43.697Z,997.63
2019-03-17T12:12:43.730Z,997.59
2019-03-17T12:13:43.707Z,997.63
2019-03-17T12:14:43.718Z,997.60
2019-03-17T12:15:43.712Z,997.66
2019-03-17T12:16:44.701Z,997.60
2019-03-17T12:17:43.721Z,997.60
2019-03-17T12:18:43.745Z,997.67
2019-03-17T12:19:43.726Z,997.66
2019-03-17T12:20:43.836Z,997.65
2019-03-17T12:21:43.734Z,997.69
2019-03-17T12:22:43.734Z,997.64
2019-03-17T12:23:43.730Z,997.67
2019-03-17T12:24:43.828Z,997.68
2019-03-17T12:25:43.745Z,997.67
2019-03-17T12:26:43.761Z,997.67
2019-03-17T12:27:43.757Z,997.69
2019-03-17T12:28:43.855Z,997.67